This is the latest recevied weather packets stored in our database for station/object K7OLI-13. If no packets are shown the sender has not sent any weather packets the latest 10 day(s).
| Time | Temp. | Humidity | Pressure | Rain* | Wind** | Luminosity | Snow |
|---|---|---|---|---|---|---|---|
| 1777996249 | 13.33° C | 85% | 1013.1 hPa | 0 mm | - | - | - |
| 1777991437 | 12.22° C | 89% | 1013.2 hPa | 0 mm | - | - | - |
| 1777984223 | 12.22° C | 90% | 1011.2 hPa | 0 mm | - | - | - |
| 1777983649 | 12.22° C | 90% | 1012.2 hPa | 0 mm | - | - | - |
| 1777982426 | 12.22° C | 90% | 1011.2 hPa | 0 mm | - | - | - |
| 1777980022 | 12.22° C | 89% | 1011.2 hPa | 0 mm | - | - | - |
| 1777971020 | 11.67° C | 90% | 1010.2 hPa | 0 mm | - | - | - |
| 1777965035 | 11.67° C | 90% | 1010.1 hPa | 0 mm | - | - | - |
| 1777964424 | 11.67° C | 89% | 1010.1 hPa | 0 mm | - | - | - |
| 1777957819 | 13.33° C | 84% | 1009.3 hPa | 0 mm | - | - | - |
| 1777953026 | 15° C | 79% | 1009.1 hPa | 0 mm | - | - | - |
| 1777951231 | 15.56° C | 76% | - | 0 mm | - | - | - |
| 1777950620 | 16.11° C | 75% | - | 0 mm | - | - | - |
| 1777948824 | 18.33° C | 70% | - | 0 mm | - | - | - |
| 1777946419 | 20° C | 66% | - | 0 mm | - | - | - |
| 1777945234 | 21.11° C | 64% | - | 0 mm | - | - | - |
| 1777944031 | 22.22° C | 62% | - | 0 mm | - | - | - |
| 1777943420 | 23.33° C | 60% | - | 0 mm | - | - | - |
| 1777939830 | 23.89° C | 59% | - | 0 mm | - | - | - |
| 1777939219 | 23.89° C | 58% | - | 0 mm | - | - | - |
| 1777936832 | 23.89° C | 58% | - | 0 mm | - | - | - |
| 1777935030 | 22.22° C | 61% | - | 0 mm | - | - | - |
| 1777933834 | 22.78° C | 60% | - | 0 mm | - | - | - |
| 1777933224 | 22.78° C | 60% | - | 0 mm | - | - | - |
| 1777930821 | 21.67° C | 61% | - | 0 mm | - | - | - |
* Rain latest hour (hover to see other rain measurements)
** Current wind speed in m/s (hover to see current wind gust speed)